sensor_id;sensor_type;location;lat;lon;timestamp;P1;durP1;ratioP1;P2;durP2;ratioP2
36691;SDS011;22678;52.052;4.242;2022-12-29T00:01:30;2.28;;;0.95;;
36691;SDS011;22678;52.052;4.242;2022-12-29T00:03:56;7.60;;;1.45;;
36691;SDS011;22678;52.052;4.242;2022-12-29T00:06:22;1.63;;;0.57;;
36691;SDS011;22678;52.052;4.242;2022-12-29T00:08:47;2.88;;;1.67;;
36691;SDS011;22678;52.052;4.242;2022-12-29T00:11:14;4.55;;;1.13;;
36691;SDS011;22678;52.052;4.242;2022-12-29T00:13:41;1.35;;;0.70;;
36691;SDS011;22678;52.052;4.242;2022-12-29T00:16:25;2.40;;;0.52;;
36691;SDS011;22678;52.052;4.242;2022-12-29T00:18:51;3.10;;;0.50;;
36691;SDS011;22678;52.052;4.242;2022-12-29T00:21:17;1.80;;;0.80;;
36691;SDS011;22678;52.052;4.242;2022-12-29T00:24:03;3.72;;;0.85;;
36691;SDS011;22678;52.052;4.242;2022-12-29T00:26:47;1.38;;;0.32;;
36691;SDS011;22678;52.052;4.242;2022-12-29T00:29:33;4.60;;;0.80;;
36691;SDS011;22678;52.052;4.242;2022-12-29T00:32:17;3.70;;;1.17;;
36691;SDS011;22678;52.052;4.242;2022-12-29T00:35:01;4.35;;;0.50;;
36691;SDS011;22678;52.052;4.242;2022-12-29T00:37:40;0.80;;;0.30;;
36691;SDS011;22678;52.052;4.242;2022-12-29T00:40:28;2.45;;;0.80;;
36691;SDS011;22678;52.052;4.242;2022-12-29T00:43:12;3.70;;;1.08;;
36691;SDS011;22678;52.052;4.242;2022-12-29T00:45:56;2.88;;;0.60;;
36691;SDS011;22678;52.052;4.242;2022-12-29T00:48:21;1.70;;;0.40;;
36691;SDS011;22678;52.052;4.242;2022-12-29T00:51:05;1.45;;;0.45;;
36691;SDS011;22678;52.052;4.242;2022-12-29T00:53:31;3.85;;;0.43;;
36691;SDS011;22678;52.052;4.242;2022-12-29T00:55:57;4.60;;;0.57;;
36691;SDS011;22678;52.052;4.242;2022-12-29T00:58:22;3.80;;;0.68;;
36691;SDS011;22678;52.052;4.242;2022-12-29T01:00:48;2.78;;;0.50;;
36691;SDS011;22678;52.052;4.242;2022-12-29T01:03:13;2.95;;;0.40;;
36691;SDS011;22678;52.052;4.242;2022-12-29T01:05:38;3.00;;;0.95;;
36691;SDS011;22678;52.052;4.242;2022-12-29T01:08:04;1.67;;;0.40;;
36691;SDS011;22678;52.052;4.242;2022-12-29T01:10:29;2.67;;;1.40;;
36691;SDS011;22678;52.052;4.242;2022-12-29T01:12:55;2.25;;;0.40;;
36691;SDS011;22678;52.052;4.242;2022-12-29T01:15:20;3.33;;;0.95;;
36691;SDS011;22678;52.052;4.242;2022-12-29T01:17:46;4.00;;;0.98;;
36691;SDS011;22678;52.052;4.242;2022-12-29T01:20:12;1.70;;;0.65;;
36691;SDS011;22678;52.052;4.242;2022-12-29T01:22:37;1.50;;;0.25;;
36691;SDS011;22678;52.052;4.242;2022-12-29T01:25:03;2.25;;;0.63;;
36691;SDS011;22678;52.052;4.242;2022-12-29T01:27:29;0.93;;;0.20;;
36691;SDS011;22678;52.052;4.242;2022-12-29T01:29:54;3.53;;;0.38;;
36691;SDS011;22678;52.052;4.242;2022-12-29T01:32:19;4.00;;;0.55;;
36691;SDS011;22678;52.052;4.242;2022-12-29T01:34:45;4.53;;;0.40;;
36691;SDS011;22678;52.052;4.242;2022-12-29T01:37:10;2.92;;;0.30;;
36691;SDS011;22678;52.052;4.242;2022-12-29T01:39:36;3.78;;;1.85;;
36691;SDS011;22678;52.052;4.242;2022-12-29T01:42:01;3.97;;;0.30;;
36691;SDS011;22678;52.052;4.242;2022-12-29T01:47:38;2.50;;;0.50;;
36691;SDS011;22678;52.052;4.242;2022-12-29T01:53:20;3.17;;;0.90;;
36691;SDS011;22678;52.052;4.242;2022-12-29T01:55:52;11.48;;;2.05;;
36691;SDS011;22678;52.052;4.242;2022-12-29T01:58:21;3.65;;;0.40;;
36691;SDS011;22678;52.052;4.242;2022-12-29T02:00:49;7.70;;;0.70;;
36691;SDS011;22678;52.052;4.242;2022-12-29T02:03:14;6.97;;;2.28;;
36691;SDS011;22678;52.052;4.242;2022-12-29T02:08:13;6.75;;;1.00;;
36691;SDS011;22678;52.052;4.242;2022-12-29T02:10:38;15.07;;;0.85;;
36691;SDS011;22678;52.052;4.242;2022-12-29T02:13:05;3.67;;;0.73;;
36691;SDS011;22678;52.052;4.242;2022-12-29T02:15:34;1.45;;;0.32;;
36691;SDS011;22678;52.052;4.242;2022-12-29T02:20:42;4.00;;;0.80;;
36691;SDS011;22678;52.052;4.242;2022-12-29T02:23:37;6.55;;;0.57;;
36691;SDS011;22678;52.052;4.242;2022-12-29T02:31:59;9.10;;;0.45;;
36691;SDS011;22678;52.052;4.242;2022-12-29T02:34:53;2.42;;;0.30;;
36691;SDS011;22678;52.052;4.242;2022-12-29T02:37:40;13.02;;;1.40;;
36691;SDS011;22678;52.052;4.242;2022-12-29T02:40:26;8.18;;;0.73;;
36691;SDS011;22678;52.052;4.242;2022-12-29T02:48:23;7.78;;;1.27;;
36691;SDS011;22678;52.052;4.242;2022-12-29T02:51:18;17.48;;;1.05;;
36691;SDS011;22678;52.052;4.242;2022-12-29T02:53:48;13.45;;;1.85;;
36691;SDS011;22678;52.052;4.242;2022-12-29T02:56:34;5.60;;;1.42;;
36691;SDS011;22678;52.052;4.242;2022-12-29T02:58:59;13.43;;;0.93;;
36691;SDS011;22678;52.052;4.242;2022-12-29T03:07:38;13.05;;;2.45;;
36691;SDS011;22678;52.052;4.242;2022-12-29T03:10:00;5.50;;;0.82;;
36691;SDS011;22678;52.052;4.242;2022-12-29T03:12:56;13.70;;;2.97;;
36691;SDS011;22678;52.052;4.242;2022-12-29T03:16:02;14.23;;;3.03;;
36691;SDS011;22678;52.052;4.242;2022-12-29T03:21:29;17.57;;;2.73;;
36691;SDS011;22678;52.052;4.242;2022-12-29T03:24:17;8.95;;;3.08;;
36691;SDS011;22678;52.052;4.242;2022-12-29T03:26:47;16.03;;;1.73;;
36691;SDS011;22678;52.052;4.242;2022-12-29T03:29:13;10.70;;;1.63;;
36691;SDS011;22678;52.052;4.242;2022-12-29T03:31:42;11.73;;;1.60;;
36691;SDS011;22678;52.052;4.242;2022-12-29T03:34:09;11.07;;;1.90;;
36691;SDS011;22678;52.052;4.242;2022-12-29T03:36:44;10.25;;;1.55;;
36691;SDS011;22678;52.052;4.242;2022-12-29T03:39:15;11.77;;;2.42;;
36691;SDS011;22678;52.052;4.242;2022-12-29T03:41:43;5.18;;;1.25;;
36691;SDS011;22678;52.052;4.242;2022-12-29T03:44:10;16.60;;;3.15;;
36691;SDS011;22678;52.052;4.242;2022-12-29T03:46:37;10.15;;;1.17;;
36691;SDS011;22678;52.052;4.242;2022-12-29T03:49:02;6.30;;;1.42;;
36691;SDS011;22678;52.052;4.242;2022-12-29T03:51:27;4.35;;;0.80;;
36691;SDS011;22678;52.052;4.242;2022-12-29T03:53:52;7.10;;;2.65;;
36691;SDS011;22678;52.052;4.242;2022-12-29T03:56:18;16.93;;;3.77;;
36691;SDS011;22678;52.052;4.242;2022-12-29T03:58:43;7.10;;;0.70;;
36691;SDS011;22678;52.052;4.242;2022-12-29T04:01:08;6.15;;;1.20;;
36691;SDS011;22678;52.052;4.242;2022-12-29T04:03:34;7.00;;;2.13;;
36691;SDS011;22678;52.052;4.242;2022-12-29T04:05:59;18.08;;;1.50;;
36691;SDS011;22678;52.052;4.242;2022-12-29T04:08:24;8.43;;;1.25;;
36691;SDS011;22678;52.052;4.242;2022-12-29T04:10:50;12.45;;;3.30;;
36691;SDS011;22678;52.052;4.242;2022-12-29T04:13:16;11.25;;;1.75;;
36691;SDS011;22678;52.052;4.242;2022-12-29T04:15:45;7.82;;;2.45;;
36691;SDS011;22678;52.052;4.242;2022-12-29T04:18:10;19.15;;;2.95;;
36691;SDS011;22678;52.052;4.242;2022-12-29T04:20:36;11.60;;;2.15;;
36691;SDS011;22678;52.052;4.242;2022-12-29T04:23:20;27.48;;;2.35;;
36691;SDS011;22678;52.052;4.242;2022-12-29T04:25:45;9.97;;;2.33;;
36691;SDS011;22678;52.052;4.242;2022-12-29T04:28:12;9.25;;;3.00;;
36691;SDS011;22678;52.052;4.242;2022-12-29T04:30:38;18.53;;;2.20;;
36691;SDS011;22678;52.052;4.242;2022-12-29T04:33:03;16.48;;;3.00;;
36691;SDS011;22678;52.052;4.242;2022-12-29T04:35:28;18.60;;;4.03;;
36691;SDS011;22678;52.052;4.242;2022-12-29T04:37:54;9.67;;;0.90;;
36691;SDS011;22678;52.052;4.242;2022-12-29T04:40:19;8.77;;;1.77;;
36691;SDS011;22678;52.052;4.242;2022-12-29T04:42:44;10.83;;;1.57;;
36691;SDS011;22678;52.052;4.242;2022-12-29T04:45:10;8.10;;;3.60;;
36691;SDS011;22678;52.052;4.242;2022-12-29T04:47:35;11.30;;;2.50;;
36691;SDS011;22678;52.052;4.242;2022-12-29T04:50:01;10.35;;;0.98;;
36691;SDS011;22678;52.052;4.242;2022-12-29T04:52:26;16.50;;;2.53;;
36691;SDS011;22678;52.052;4.242;2022-12-29T04:54:51;19.13;;;2.50;;
36691;SDS011;22678;52.052;4.242;2022-12-29T04:57:16;13.13;;;2.47;;
36691;SDS011;22678;52.052;4.242;2022-12-29T04:59:42;13.43;;;1.90;;
36691;SDS011;22678;52.052;4.242;2022-12-29T05:02:07;12.10;;;1.73;;
36691;SDS011;22678;52.052;4.242;2022-12-29T05:04:32;14.27;;;2.40;;
36691;SDS011;22678;52.052;4.242;2022-12-29T05:06:58;13.57;;;2.53;;
36691;SDS011;22678;52.052;4.242;2022-12-29T05:09:23;10.00;;;1.48;;
36691;SDS011;22678;52.052;4.242;2022-12-29T05:11:49;12.13;;;2.03;;
36691;SDS011;22678;52.052;4.242;2022-12-29T05:14:14;9.27;;;0.90;;
36691;SDS011;22678;52.052;4.242;2022-12-29T05:16:39;11.83;;;1.50;;
36691;SDS011;22678;52.052;4.242;2022-12-29T05:19:05;20.57;;;2.73;;
36691;SDS011;22678;52.052;4.242;2022-12-29T05:21:30;12.97;;;2.00;;
36691;SDS011;22678;52.052;4.242;2022-12-29T05:23:55;9.83;;;2.60;;
36691;SDS011;22678;52.052;4.242;2022-12-29T05:26:21;3.83;;;1.13;;
36691;SDS011;22678;52.052;4.242;2022-12-29T05:28:46;10.30;;;3.43;;
36691;SDS011;22678;52.052;4.242;2022-12-29T05:31:11;14.97;;;1.00;;
36691;SDS011;22678;52.052;4.242;2022-12-29T05:33:37;11.03;;;1.30;;
36691;SDS011;22678;52.052;4.242;2022-12-29T05:36:05;13.63;;;2.30;;
36691;SDS011;22678;52.052;4.242;2022-12-29T05:38:32;10.77;;;1.67;;
36691;SDS011;22678;52.052;4.242;2022-12-29T05:40:57;10.38;;;1.33;;
36691;SDS011;22678;52.052;4.242;2022-12-29T05:43:23;8.50;;;2.15;;
36691;SDS011;22678;52.052;4.242;2022-12-29T05:45:48;20.13;;;1.63;;
36691;SDS011;22678;52.052;4.242;2022-12-29T05:48:14;11.07;;;1.40;;
36691;SDS011;22678;52.052;4.242;2022-12-29T05:50:40;9.30;;;1.90;;
36691;SDS011;22678;52.052;4.242;2022-12-29T05:53:05;13.20;;;3.17;;
36691;SDS011;22678;52.052;4.242;2022-12-29T05:55:31;13.60;;;2.93;;
36691;SDS011;22678;52.052;4.242;2022-12-29T05:57:56;9.83;;;3.27;;
36691;SDS011;22678;52.052;4.242;2022-12-29T06:00:21;17.42;;;3.63;;
36691;SDS011;22678;52.052;4.242;2022-12-29T06:02:47;11.50;;;1.75;;
36691;SDS011;22678;52.052;4.242;2022-12-29T06:05:12;6.20;;;1.10;;
36691;SDS011;22678;52.052;4.242;2022-12-29T06:07:37;18.77;;;3.07;;
36691;SDS011;22678;52.052;4.242;2022-12-29T06:10:04;14.80;;;4.15;;
36691;SDS011;22678;52.052;4.242;2022-12-29T06:12:30;10.48;;;1.80;;
36691;SDS011;22678;52.052;4.242;2022-12-29T06:14:55;7.50;;;2.30;;
36691;SDS011;22678;52.052;4.242;2022-12-29T06:17:20;10.40;;;1.30;;
36691;SDS011;22678;52.052;4.242;2022-12-29T06:19:46;16.23;;;1.93;;
36691;SDS011;22678;52.052;4.242;2022-12-29T06:22:11;13.07;;;2.37;;
36691;SDS011;22678;52.052;4.242;2022-12-29T06:24:37;12.57;;;3.67;;
36691;SDS011;22678;52.052;4.242;2022-12-29T06:27:03;14.47;;;2.53;;
36691;SDS011;22678;52.052;4.242;2022-12-29T06:29:28;31.80;;;4.07;;
36691;SDS011;22678;52.052;4.242;2022-12-29T06:31:53;12.35;;;1.50;;
36691;SDS011;22678;52.052;4.242;2022-12-29T06:34:22;16.13;;;1.73;;
36691;SDS011;22678;52.052;4.242;2022-12-29T06:36:48;14.70;;;3.43;;
36691;SDS011;22678;52.052;4.242;2022-12-29T06:39:13;14.23;;;3.20;;
36691;SDS011;22678;52.052;4.242;2022-12-29T06:41:39;13.83;;;3.60;;
36691;SDS011;22678;52.052;4.242;2022-12-29T06:44:04;16.37;;;3.57;;
36691;SDS011;22678;52.052;4.242;2022-12-29T06:46:29;21.37;;;3.97;;
36691;SDS011;22678;52.052;4.242;2022-12-29T06:48:55;14.10;;;3.50;;
36691;SDS011;22678;52.052;4.242;2022-12-29T06:51:20;15.80;;;2.10;;
36691;SDS011;22678;52.052;4.242;2022-12-29T06:53:45;9.17;;;1.40;;
36691;SDS011;22678;52.052;4.242;2022-12-29T06:56:11;17.33;;;2.00;;
36691;SDS011;22678;52.052;4.242;2022-12-29T06:58:36;23.00;;;3.97;;
36691;SDS011;22678;52.052;4.242;2022-12-29T07:01:01;13.90;;;3.50;;
36691;SDS011;22678;52.052;4.242;2022-12-29T07:03:27;18.70;;;3.77;;
36691;SDS011;22678;52.052;4.242;2022-12-29T07:05:52;25.77;;;3.63;;
36691;SDS011;22678;52.052;4.242;2022-12-29T07:08:19;17.13;;;3.87;;
36691;SDS011;22678;52.052;4.242;2022-12-29T07:10:44;18.50;;;3.53;;
36691;SDS011;22678;52.052;4.242;2022-12-29T07:13:10;12.47;;;2.37;;
36691;SDS011;22678;52.052;4.242;2022-12-29T07:15:36;22.87;;;2.37;;
36691;SDS011;22678;52.052;4.242;2022-12-29T07:18:02;8.30;;;1.17;;
36691;SDS011;22678;52.052;4.242;2022-12-29T07:20:28;12.00;;;1.20;;
36691;SDS011;22678;52.052;4.242;2022-12-29T07:22:54;17.33;;;2.67;;
36691;SDS011;22678;52.052;4.242;2022-12-29T07:25:19;11.23;;;2.53;;
36691;SDS011;22678;52.052;4.242;2022-12-29T07:27:45;13.97;;;3.33;;
36691;SDS011;22678;52.052;4.242;2022-12-29T07:30:10;7.87;;;2.47;;
36691;SDS011;22678;52.052;4.242;2022-12-29T07:32:36;22.10;;;3.70;;
36691;SDS011;22678;52.052;4.242;2022-12-29T07:35:02;13.43;;;1.40;;
36691;SDS011;22678;52.052;4.242;2022-12-29T07:37:27;21.33;;;5.00;;
36691;SDS011;22678;52.052;4.242;2022-12-29T07:39:52;14.87;;;2.20;;
36691;SDS011;22678;52.052;4.242;2022-12-29T07:42:18;18.13;;;4.20;;
36691;SDS011;22678;52.052;4.242;2022-12-29T07:44:43;21.70;;;3.92;;
36691;SDS011;22678;52.052;4.242;2022-12-29T07:47:09;15.07;;;3.70;;
36691;SDS011;22678;52.052;4.242;2022-12-29T07:49:34;9.00;;;1.30;;
36691;SDS011;22678;52.052;4.242;2022-12-29T07:52:00;7.63;;;2.13;;
36691;SDS011;22678;52.052;4.242;2022-12-29T07:54:25;12.80;;;1.70;;
36691;SDS011;22678;52.052;4.242;2022-12-29T07:56:50;11.07;;;3.20;;
36691;SDS011;22678;52.052;4.242;2022-12-29T07:59:16;15.97;;;3.17;;
36691;SDS011;22678;52.052;4.242;2022-12-29T08:01:41;10.83;;;2.97;;
36691;SDS011;22678;52.052;4.242;2022-12-29T08:04:07;16.23;;;2.13;;
36691;SDS011;22678;52.052;4.242;2022-12-29T08:06:32;17.27;;;4.23;;
36691;SDS011;22678;52.052;4.242;2022-12-29T08:08:57;11.47;;;2.03;;
36691;SDS011;22678;52.052;4.242;2022-12-29T08:11:23;19.90;;;3.40;;
36691;SDS011;22678;52.052;4.242;2022-12-29T08:13:49;13.23;;;3.40;;
36691;SDS011;22678;52.052;4.242;2022-12-29T08:16:14;10.77;;;2.33;;
36691;SDS011;22678;52.052;4.242;2022-12-29T08:18:39;15.67;;;4.10;;
36691;SDS011;22678;52.052;4.242;2022-12-29T08:21:05;14.93;;;1.93;;
36691;SDS011;22678;52.052;4.242;2022-12-29T08:23:30;13.63;;;3.10;;
36691;SDS011;22678;52.052;4.242;2022-12-29T08:25:57;22.10;;;3.10;;
36691;SDS011;22678;52.052;4.242;2022-12-29T08:28:23;18.80;;;3.83;;
36691;SDS011;22678;52.052;4.242;2022-12-29T08:30:48;15.10;;;2.50;;
36691;SDS011;22678;52.052;4.242;2022-12-29T08:33:13;17.30;;;3.17;;
36691;SDS011;22678;52.052;4.242;2022-12-29T08:35:39;12.33;;;1.93;;
36691;SDS011;22678;52.052;4.242;2022-12-29T08:38:04;11.53;;;0.80;;
36691;SDS011;22678;52.052;4.242;2022-12-29T08:40:29;11.80;;;2.10;;
36691;SDS011;22678;52.052;4.242;2022-12-29T08:42:58;11.03;;;2.30;;
36691;SDS011;22678;52.052;4.242;2022-12-29T08:45:44;18.40;;;4.73;;
36691;SDS011;22678;52.052;4.242;2022-12-29T08:48:09;9.77;;;1.97;;
36691;SDS011;22678;52.052;4.242;2022-12-29T08:50:35;16.10;;;1.33;;
36691;SDS011;22678;52.052;4.242;2022-12-29T08:53:00;19.30;;;3.87;;
36691;SDS011;22678;52.052;4.242;2022-12-29T08:55:25;15.67;;;1.63;;
36691;SDS011;22678;52.052;4.242;2022-12-29T08:57:51;16.77;;;2.87;;
36691;SDS011;22678;52.052;4.242;2022-12-29T09:00:17;18.57;;;6.13;;
36691;SDS011;22678;52.052;4.242;2022-12-29T09:02:42;10.20;;;1.93;;
36691;SDS011;22678;52.052;4.242;2022-12-29T09:05:08;16.17;;;2.97;;
36691;SDS011;22678;52.052;4.242;2022-12-29T09:07:34;9.93;;;1.63;;
36691;SDS011;22678;52.052;4.242;2022-12-29T09:09:59;20.77;;;3.23;;
36691;SDS011;22678;52.052;4.242;2022-12-29T09:12:25;17.00;;;3.23;;
36691;SDS011;22678;52.052;4.242;2022-12-29T09:14:50;17.53;;;4.00;;
36691;SDS011;22678;52.052;4.242;2022-12-29T09:17:15;20.13;;;4.90;;
36691;SDS011;22678;52.052;4.242;2022-12-29T09:20:00;18.53;;;3.13;;
36691;SDS011;22678;52.052;4.242;2022-12-29T09:22:25;19.03;;;6.30;;
36691;SDS011;22678;52.052;4.242;2022-12-29T09:24:50;10.10;;;2.30;;
36691;SDS011;22678;52.052;4.242;2022-12-29T09:27:15;24.23;;;5.47;;
36691;SDS011;22678;52.052;4.242;2022-12-29T09:29:41;21.23;;;2.60;;
36691;SDS011;22678;52.052;4.242;2022-12-29T09:32:06;30.43;;;6.30;;
36691;SDS011;22678;52.052;4.242;2022-12-29T09:34:32;17.60;;;4.80;;
36691;SDS011;22678;52.052;4.242;2022-12-29T09:36:57;27.67;;;4.00;;
36691;SDS011;22678;52.052;4.242;2022-12-29T09:39:23;28.07;;;5.73;;
36691;SDS011;22678;52.052;4.242;2022-12-29T09:44:38;19.77;;;5.18;;
36691;SDS011;22678;52.052;4.242;2022-12-29T09:47:16;30.57;;;4.63;;
36691;SDS011;22678;52.052;4.242;2022-12-29T09:49:45;34.75;;;11.65;;
36691;SDS011;22678;52.052;4.242;2022-12-29T09:52:24;26.43;;;4.33;;
36691;SDS011;22678;52.052;4.242;2022-12-29T09:54:56;30.93;;;5.87;;
36691;SDS011;22678;52.052;4.242;2022-12-29T09:57:36;35.57;;;7.07;;
36691;SDS011;22678;52.052;4.242;2022-12-29T10:00:18;23.67;;;5.00;;
36691;SDS011;22678;52.052;4.242;2022-12-29T10:02:51;39.03;;;7.07;;
36691;SDS011;22678;52.052;4.242;2022-12-29T10:16:26;20.63;;;7.20;;
36691;SDS011;22678;52.052;4.242;2022-12-29T10:19:18;31.20;;;5.03;;
36691;SDS011;22678;52.052;4.242;2022-12-29T10:24:48;30.00;;;5.83;;
36691;SDS011;22678;52.052;4.242;2022-12-29T10:27:18;23.63;;;4.97;;
36691;SDS011;22678;52.052;4.242;2022-12-29T10:29:48;24.48;;;4.72;;
36691;SDS011;22678;52.052;4.242;2022-12-29T10:35:14;20.38;;;2.47;;
36691;SDS011;22678;52.052;4.242;2022-12-29T10:37:48;13.82;;;1.60;;
36691;SDS011;22678;52.052;4.242;2022-12-29T10:45:47;16.60;;;2.05;;
36691;SDS011;22678;52.052;4.242;2022-12-29T10:48:15;21.33;;;2.80;;
36691;SDS011;22678;52.052;4.242;2022-12-29T10:50:47;9.32;;;1.95;;
36691;SDS011;22678;52.052;4.242;2022-12-29T10:53:19;9.75;;;1.75;;
36691;SDS011;22678;52.052;4.242;2022-12-29T10:55:47;22.23;;;2.10;;
36691;SDS011;22678;52.052;4.242;2022-12-29T10:58:14;19.73;;;1.90;;
36691;SDS011;22678;52.052;4.242;2022-12-29T11:00:40;14.73;;;2.80;;
36691;SDS011;22678;52.052;4.242;2022-12-29T11:06:49;14.23;;;2.03;;
36691;SDS011;22678;52.052;4.242;2022-12-29T11:11:41;13.60;;;1.90;;
36691;SDS011;22678;52.052;4.242;2022-12-29T11:14:30;14.98;;;2.17;;
36691;SDS011;22678;52.052;4.242;2022-12-29T11:17:00;16.48;;;1.17;;
36691;SDS011;22678;52.052;4.242;2022-12-29T11:19:29;19.98;;;4.90;;
36691;SDS011;22678;52.052;4.242;2022-12-29T11:24:53;9.20;;;0.95;;
36691;SDS011;22678;52.052;4.242;2022-12-29T11:27:21;11.30;;;1.77;;
36691;SDS011;22678;52.052;4.242;2022-12-29T11:29:51;12.73;;;1.73;;
36691;SDS011;22678;52.052;4.242;2022-12-29T11:32:19;15.38;;;2.08;;
36691;SDS011;22678;52.052;4.242;2022-12-29T11:34:47;9.07;;;2.15;;
36691;SDS011;22678;52.052;4.242;2022-12-29T11:42:34;86.10;;;38.33;;
36691;SDS011;22678;52.052;4.242;2022-12-29T11:45:21;40.92;;;14.68;;
36691;SDS011;22678;52.052;4.242;2022-12-29T11:47:51;213.00;;;86.93;;
36691;SDS011;22678;52.052;4.242;2022-12-29T11:50:20;381.17;;;123.03;;
36691;SDS011;22678;52.052;4.242;2022-12-29T11:52:48;272.35;;;87.70;;
36691;SDS011;22678;52.052;4.242;2022-12-29T11:55:20;409.75;;;131.38;;
36691;SDS011;22678;52.052;4.242;2022-12-29T11:57:49;328.42;;;123.32;;
36691;SDS011;22678;52.052;4.242;2022-12-29T12:02:50;601.28;;;267.02;;
36691;SDS011;22678;52.052;4.242;2022-12-29T12:05:38;267.88;;;137.50;;
36691;SDS011;22678;52.052;4.242;2022-12-29T12:11:04;23.25;;;5.53;;
36691;SDS011;22678;52.052;4.242;2022-12-29T12:14:11;18.98;;;3.10;;
36691;SDS011;22678;52.052;4.242;2022-12-29T12:16:38;19.85;;;3.92;;
36691;SDS011;22678;52.052;4.242;2022-12-29T12:25:09;24.10;;;5.15;;
36691;SDS011;22678;52.052;4.242;2022-12-29T12:30:36;9.50;;;1.80;;
36691;SDS011;22678;52.052;4.242;2022-12-29T12:33:11;13.48;;;2.60;;
36691;SDS011;22678;52.052;4.242;2022-12-29T12:52:54;18.85;;;2.30;;
36691;SDS011;22678;52.052;4.242;2022-12-29T12:58:19;10.00;;;1.75;;
36691;SDS011;22678;52.052;4.242;2022-12-29T13:01:17;34.33;;;2.47;;
36691;SDS011;22678;52.052;4.242;2022-12-29T13:21:01;15.90;;;2.00;;
36691;SDS011;22678;52.052;4.242;2022-12-29T13:28:52;10.82;;;2.15;;
36691;SDS011;22678;52.052;4.242;2022-12-29T13:31:33;20.15;;;3.15;;
36691;SDS011;22678;52.052;4.242;2022-12-29T13:36:57;14.48;;;2.47;;
36691;SDS011;22678;52.052;4.242;2022-12-29T13:39:28;8.45;;;0.90;;
36691;SDS011;22678;52.052;4.242;2022-12-29T13:41:58;12.00;;;1.58;;
36691;SDS011;22678;52.052;4.242;2022-12-29T13:44:28;5.00;;;0.73;;
36691;SDS011;22678;52.052;4.242;2022-12-29T13:46:59;14.25;;;1.30;;
36691;SDS011;22678;52.052;4.242;2022-12-29T13:49:27;18.20;;;2.80;;
36691;SDS011;22678;52.052;4.242;2022-12-29T13:54:53;10.45;;;2.33;;
36691;SDS011;22678;52.052;4.242;2022-12-29T13:57:46;9.40;;;3.13;;
36691;SDS011;22678;52.052;4.242;2022-12-29T14:00:20;17.50;;;1.80;;
36691;SDS011;22678;52.052;4.242;2022-12-29T14:05:27;15.77;;;3.60;;
36691;SDS011;22678;52.052;4.242;2022-12-29T14:07:58;5.93;;;1.38;;
36691;SDS011;22678;52.052;4.242;2022-12-29T14:13:13;5.83;;;1.10;;
36691;SDS011;22678;52.052;4.242;2022-12-29T14:15:45;15.50;;;1.70;;
36691;SDS011;22678;52.052;4.242;2022-12-29T14:18:21;7.70;;;0.77;;
36691;SDS011;22678;52.052;4.242;2022-12-29T14:23:38;15.02;;;2.17;;
36691;SDS011;22678;52.052;4.242;2022-12-29T14:28:32;17.40;;;3.83;;
36691;SDS011;22678;52.052;4.242;2022-12-29T14:31:00;17.60;;;1.97;;
36691;SDS011;22678;52.052;4.242;2022-12-29T14:33:30;16.20;;;2.97;;
36691;SDS011;22678;52.052;4.242;2022-12-29T14:35:57;15.13;;;3.10;;
36691;SDS011;22678;52.052;4.242;2022-12-29T14:39:04;16.20;;;1.13;;
36691;SDS011;22678;52.052;4.242;2022-12-29T14:42:03;6.20;;;1.88;;
36691;SDS011;22678;52.052;4.242;2022-12-29T14:44:31;14.20;;;0.67;;
36691;SDS011;22678;52.052;4.242;2022-12-29T14:46:59;11.87;;;3.57;;
36691;SDS011;22678;52.052;4.242;2022-12-29T14:49:33;13.07;;;4.18;;
36691;SDS011;22678;52.052;4.242;2022-12-29T14:52:07;14.38;;;1.02;;
36691;SDS011;22678;52.052;4.242;2022-12-29T14:54:41;8.57;;;1.80;;
36691;SDS011;22678;52.052;4.242;2022-12-29T15:00:36;8.47;;;1.40;;
36691;SDS011;22678;52.052;4.242;2022-12-29T15:03:10;12.73;;;1.87;;
36691;SDS011;22678;52.052;4.242;2022-12-29T15:08:11;20.00;;;4.15;;
36691;SDS011;22678;52.052;4.242;2022-12-29T15:10:45;21.97;;;2.70;;
36691;SDS011;22678;52.052;4.242;2022-12-29T15:13:20;13.70;;;2.87;;
36691;SDS011;22678;52.052;4.242;2022-12-29T15:15:47;17.70;;;2.90;;
36691;SDS011;22678;52.052;4.242;2022-12-29T15:18:14;22.37;;;2.43;;
36691;SDS011;22678;52.052;4.242;2022-12-29T15:20:49;8.13;;;1.63;;
36691;SDS011;22678;52.052;4.242;2022-12-29T15:23:22;16.23;;;3.83;;
36691;SDS011;22678;52.052;4.242;2022-12-29T15:25:53;15.95;;;1.75;;
36691;SDS011;22678;52.052;4.242;2022-12-29T15:28:24;13.13;;;0.93;;
36691;SDS011;22678;52.052;4.242;2022-12-29T15:31:01;9.52;;;1.52;;
36691;SDS011;22678;52.052;4.242;2022-12-29T15:33:29;12.90;;;3.30;;
36691;SDS011;22678;52.052;4.242;2022-12-29T15:35:55;20.40;;;3.03;;
36691;SDS011;22678;52.052;4.242;2022-12-29T15:38:27;12.35;;;3.50;;
36691;SDS011;22678;52.052;4.242;2022-12-29T15:40:55;15.80;;;3.70;;
36691;SDS011;22678;52.052;4.242;2022-12-29T15:46:02;12.80;;;2.00;;
36691;SDS011;22678;52.052;4.242;2022-12-29T15:48:28;21.77;;;4.53;;
36691;SDS011;22678;52.052;4.242;2022-12-29T15:50:55;8.37;;;1.63;;
36691;SDS011;22678;52.052;4.242;2022-12-29T15:53:23;16.20;;;2.40;;
36691;SDS011;22678;52.052;4.242;2022-12-29T15:55:53;11.48;;;2.13;;
36691;SDS011;22678;52.052;4.242;2022-12-29T15:58:23;9.57;;;3.00;;
36691;SDS011;22678;52.052;4.242;2022-12-29T16:00:57;6.30;;;1.50;;
36691;SDS011;22678;52.052;4.242;2022-12-29T16:03:24;7.67;;;1.87;;
36691;SDS011;22678;52.052;4.242;2022-12-29T16:05:56;13.83;;;2.23;;
36691;SDS011;22678;52.052;4.242;2022-12-29T16:08:36;11.57;;;2.00;;
36691;SDS011;22678;52.052;4.242;2022-12-29T16:11:24;11.38;;;1.83;;
36691;SDS011;22678;52.052;4.242;2022-12-29T16:13:55;8.00;;;2.30;;
36691;SDS011;22678;52.052;4.242;2022-12-29T16:18:59;15.73;;;4.70;;
36691;SDS011;22678;52.052;4.242;2022-12-29T16:21:54;7.47;;;0.93;;
36691;SDS011;22678;52.052;4.242;2022-12-29T16:24:25;11.13;;;1.70;;
36691;SDS011;22678;52.052;4.242;2022-12-29T16:27:06;16.53;;;2.20;;
36691;SDS011;22678;52.052;4.242;2022-12-29T16:29:34;13.23;;;1.37;;
36691;SDS011;22678;52.052;4.242;2022-12-29T16:32:01;27.80;;;3.60;;
36691;SDS011;22678;52.052;4.242;2022-12-29T16:36:57;10.80;;;1.77;;
36691;SDS011;22678;52.052;4.242;2022-12-29T16:39:24;16.17;;;3.07;;
36691;SDS011;22678;52.052;4.242;2022-12-29T16:41:51;14.37;;;2.13;;
36691;SDS011;22678;52.052;4.242;2022-12-29T16:44:18;11.13;;;1.90;;
36691;SDS011;22678;52.052;4.242;2022-12-29T16:47:06;12.93;;;1.57;;
36691;SDS011;22678;52.052;4.242;2022-12-29T16:49:48;12.37;;;2.80;;
36691;SDS011;22678;52.052;4.242;2022-12-29T16:52:23;17.23;;;2.50;;
36691;SDS011;22678;52.052;4.242;2022-12-29T16:54:55;16.40;;;2.50;;
36691;SDS011;22678;52.052;4.242;2022-12-29T16:57:24;16.30;;;1.87;;
36691;SDS011;22678;52.052;4.242;2022-12-29T16:59:53;7.43;;;1.73;;
36691;SDS011;22678;52.052;4.242;2022-12-29T17:02:24;10.40;;;2.23;;
36691;SDS011;22678;52.052;4.242;2022-12-29T17:04:52;12.00;;;2.30;;
36691;SDS011;22678;52.052;4.242;2022-12-29T17:07:19;7.23;;;1.20;;
36691;SDS011;22678;52.052;4.242;2022-12-29T17:09:46;15.53;;;3.90;;
36691;SDS011;22678;52.052;4.242;2022-12-29T17:12:15;11.30;;;1.10;;
36691;SDS011;22678;52.052;4.242;2022-12-29T17:19:56;8.77;;;1.80;;
36691;SDS011;22678;52.052;4.242;2022-12-29T17:22:30;12.57;;;3.37;;
36691;SDS011;22678;52.052;4.242;2022-12-29T17:24:57;19.77;;;3.53;;
36691;SDS011;22678;52.052;4.242;2022-12-29T17:27:28;13.47;;;1.93;;
36691;SDS011;22678;52.052;4.242;2022-12-29T17:30:04;13.10;;;2.70;;
36691;SDS011;22678;52.052;4.242;2022-12-29T17:32:36;18.17;;;3.73;;
36691;SDS011;22678;52.052;4.242;2022-12-29T17:35:01;18.10;;;4.17;;
36691;SDS011;22678;52.052;4.242;2022-12-29T17:37:29;20.37;;;2.23;;